Terminal Aerodrome Forecast
Issued by NWS Charleston, SC

Home | Current Version | Previous Version | Text Only | Print | Product List | Glossary On
Versions: 1 2 3 4 5 6 7 8 9 10 11 12 13 14 15 16 17 18 19
000
FTUS42 KCHS 242335
TAFCHS
TAF
KCHS 242335Z 2500/2524 VRB03KT P6SM VCTS SCT020 BKN060CB
     FM250300 27006KT P6SM SCT010 BKN020
      TEMPO 2504/2506 BKN008
     FM250600 27007KT P6SM SCT004 OVC006
     FM251500 28012G19KT P6SM SCT007 BKN015
     FM252100 30010KT P6SM SCT020 BKN045=

USA.gov is the U.S. government's official web portal to all federal, state and local government web resources and services.